1974 Tropical Cyclone WANDA (1974021S18149)


IBTrACS version v04r00. Visit IBTrACS website for data access.
Please direct all questions to the IBTrACS Q and A forum

Storm track - Intensity - Wind Radii - Intensity Data - Source Data - All data

Summary Information

Storm ID 1974021S18149
Start Jan 20 14Z
Landfall Jan 24 05Z
Max Intensity 50 kt (Jan 24 08Z), 990 mb (Jan 23 11Z)
End Jan 25 08Z
ATCF IDs ,SH191974
Track status Best track data.

Storm track plot

Map of storm track

Intensity plots

Map of storm track

Radial wind information

No radial wind information for this storm


Position and Intensity Table

BASIN ISO_TIME_________ NATURE LAT LON WMO WIND WMO PRES BOM WIND BOM PRES WELLINGTON WIND WELLINGTON PRES DS824 WIND DS824 PRES NEUMANN WIND
degrees north degrees east kts mb kts mb kts mb kts mb kts
SP 1974-01-20 14:00:00 NR -17.70 148.80 25 1004 25 1004
SP 15:00:00 NR -17.81 148.97 25 1003
SP 17:00:00 NR -18.00 149.30 25 1002 25 1002
SP 18:00:00 TS -18.07 149.41 25 1002 25 1002 25
SP 20:00:00 TS -18.17 149.65 25 1002 25 1002 25 1002 25
SP 21:00:00 TS -18.21 149.76 25 1002 25 1002 25
SP 23:00:00 TS -18.28 149.97 25 1003 25 1003 25 1002 25
SP 1974-01-21 00:00:00 TS -18.31 150.06 25 1003 25 1003 25
SP 02:00:00 TS -18.36 150.20 25 1004 25 1004 25 1002 25
SP 03:00:00 TS -18.37 150.27 25 1003 25 1002 25
SP 05:00:00 TS -18.39 150.39 25 1002 25 1002 25 1002 25
SP 06:00:00 TS -18.41 150.46 25 1002 25 1002 25
SP 08:00:00 TS -18.48 150.57 25 1003 25 1003 23 1002 23
SP 09:00:00 TS -18.52 150.62 25 1003 22 1003 22
SP 11:00:00 TS -18.58 150.77 25 1004 25 1004 20 1003 20
SP 12:00:00 TS -18.60 150.87 25 1004 20 1004 20
SP 14:00:00 TS -18.61 151.15 25 1004 25 1004 21 1003 21
SP 15:00:00 TS -18.61 151.31 25 1003 22 1003 22
SP 17:00:00 TS -18.60 151.65 25 1002 25 1002 24 1002 24
SP 18:00:00 TS -18.60 151.83 25 1002 25 1002 25
SP 20:00:00 TS -18.60 152.20 25 1003 25 1003 23 1002 23
SP 21:00:00 TS -18.60 152.37 25 1003 22 1003 22
SP 23:00:00 TS -18.60 152.65 25 1004 25 1004 20 1003 20
SP 1974-01-22 00:00:00 TS -18.60 152.76 25 1004 20 1004 20
SP 02:00:00 TS -18.59 152.89 25 1004 25 1004 21 1003 21
SP 03:00:00 TS -18.59 152.93 25 1003 22 1003 22
SP 05:00:00 TS -18.59 152.99 25 1003 25 1003 24 1003 24
SP 06:00:00 TS -18.61 153.01 25 1003 25 1003 25
SP 08:00:00 TS -18.67 153.08 25 1004 25 1004 21 1004 23
SP 09:00:00 TS -18.71 153.11 25 1004 20 1004 22
SP 11:00:00 TS -18.80 153.17 25 1006 25 1006 16 1005 20
SP 12:00:00 TS -18.85 153.21 25 1005 15 1006 20
SP 14:00:00 TS -18.97 153.29 25 1005 25 1005 16 1005 20
SP 15:00:00 TS -19.03 153.34 25 1004 17 1005 20
SP 17:00:00 TS -19.17 153.47 25 1004 25 1004 19 1004 20
SP 18:00:00 TS -19.26 153.57 25 1004 20 1004 20
SP 20:00:00 TS -19.47 153.84 25 1005 25 1005 20 1004 20
SP 21:00:00 TS -19.59 153.99 25 1005 20 1004 20
SP 23:00:00 TS -19.85 154.26 25 1005 25 1005 20 1004 20
SP 1974-01-23 00:00:00 TS -20.03 154.64 25 1005 30 997 20 1005 20
SP 02:00:00 TS -20.33 154.79 25 1005 25 1005 31 995 21 1004 21
SP 03:00:00 TS -20.50 154.82 25 1004 32 995 22 1004 22
SP 05:00:00 TS -20.79 154.75 25 1003 25 1003 34 994 24 1003 24
SP 06:00:00 TS -20.93 154.68 26 1002 35 993 25 1003 25
SP 08:00:00 TS -21.20 154.53 30 1002 30 1002 36 992 26 1001 26
SP 09:00:00 TS -21.33 154.45 30 1001 37 991 27 1001 27
SP 11:00:00 TS -21.62 154.29 30 1000 30 1000 39 990 29 1000 29
SP 12:00:00 TS -21.77 154.22 30 1000 40 990 30 1000 30
SP 14:00:00 TS -22.09 154.08 30 1000 30 1000 40 990 30 999 30
SP 15:00:00 TS -22.25 154.02 30 999 40 990 30 999 30
SP 17:00:00 TS -22.58 153.89 30 999 30 999 40 990 30 999 30
SP 18:00:00 TS -22.74 153.84 30 999 40 990 30 999 30
SP 20:00:00 TS -23.07 153.73 30 999 30 999 40 990 30 999 30
SP 21:00:00 TS -23.24 153.68 30 999 40 990 30 999 30
SP 23:00:00 TS -23.60 153.59 30 1000 30 1000 40 990 30 999 30
SP 1974-01-24 00:00:00 TS -23.80 153.54 31 1000 40 990 30 1000 30
SP 02:00:00 TS -24.23 153.45 35 1000 35 1000 40 990 31 998 31
SP 03:00:00 TS -24.44 153.41 38 999 40 990 32 998 32
SP 05:00:00 TS -24.85 153.31 45 997 45 997 40 990 34 997 34
SP 06:00:00 TS -25.03 153.26 46 997 40 990 35 997 35
SP 08:00:00 TS -25.37 153.13 50 997 50 997 40 990 35 997 33
SP 09:00:00 TS -25.52 153.06 50 997 40 990 35 997 32
SP 11:00:00 TS -25.76 152.91 50 998 50 998 40 990 35 997 30
SP 12:00:00 TS -25.83 152.83 50 998 40 990 35 998 30
SP 14:00:00 TS -25.90 152.67 50 998 50 998 40 990 33 998 28
SP 15:00:00 TS -25.89 152.58 50 998 40 990 32 999 27
SP 17:00:00 TS -25.78 152.39 50 1000 50 1000 40 990 30 999 25
SP 18:00:00 TS -25.69 152.29 43 1000 40 990 30 1000 25
SP 20:00:00 TS -25.44 152.07 30 1003 30 1003 40 990 28 1001 25
SP 21:00:00 TS -25.45 151.93 30 1003 40 990 27 1001 25
SP 23:00:00 TS -25.50 151.62 30 1003 30 1003 40 990 25 1002 25
SP 1974-01-25 00:00:00 TS -25.95 151.43 26 1003 40 990 25 1003 25
SP 02:00:00 TS -27.02 151.03 20 1003 20 1003 26 1002 25
SP 03:00:00 TS -27.07 150.87 20 1002 27 1002 25
SP 05:00:00 TS -27.18 150.54 20 1001 20 1001 29 1001 25
SP 06:00:00 TS -27.22 150.35 20 1001 30 1001 25
SP 08:00:00 NR -27.30 149.90 20 1003 20 1003

Source Information

Agency Information
USA bsh191974.txt
TOKYO
CMA
HKO
NEWDELHI
REUNION
BOM IDCKMSTM0S.csv:Line=8638:WANDA
NADI
WELLINGTON TC_BT_1967_2006.csv:Line=622:WANDA
DS824 aus_area.dat:516:WANDA
TD9636 cons_worldwide_trop_cyclone_18710101-19891231-006:Line=9498
TD9635
NEUMANN tracks.sh:Storm=396:WANDA:BSH1974:BM435
MLC

All available IBTrACS Data

SEASON BASIN SUBBASIN ISO_TIME_________ NATURE LAT LON WMO WIND WMO PRES WMO AGENCY DIST2LAND LANDFALL IFLAG USA AGENCY USA ATCF_ID USA LAT USA LON USA SSHS BOM LAT BOM LON BOM TYPE BOM WIND BOM PRES BOM CI BOM PRES_METHOD WELLINGTON LAT WELLINGTON LON WELLINGTON WIND WELLINGTON PRES DS824 LAT DS824 LON DS824 STAGE DS824 WIND DS824 PRES TD9636 LAT TD9636 LON TD9636 STAGE NEUMANN LAT NEUMANN LON NEUMANN CLASS NEUMANN WIND BOM GUST BOM GUST_PER STORM SPEED STORM DIR
Year degrees north degrees east kts mb km km degrees north degrees east 1 degrees north degrees east kts mb 1 degrees north degrees east kts mb degrees north degrees east kts mb degrees north degrees east degrees north degrees east kts kts second kts degrees
1974 SP EA 1974-01-20 14:00:00 NR -17.70 148.80 25 1004 bom 240 238 ______O_______ -1 -17.70 148.80 20 25 1004 1.50 45 45 12 123
1974 SP EA 15:00:00 NR -17.81 148.97 245 242 ______P_______ -1 -17.81 148.97 20 25 1003 11 122
1974 SP EA 17:00:00 NR -18.00 149.30 25 1002 bom 247 241 ______O_______ -1 -18.00 149.30 20 25 1002 1.50 45 45 10 122
1974 SP EA 18:00:00 TS -18.07 149.41 241 241 ______P__O__O_ -1 -18.08 149.45 20 25 1002 -18.10 149.40 TC 25 1002 -18.00 149.30 TC 25 8 117
1974 SP EA 20:00:00 TS -18.17 149.65 25 1002 bom 249 249 ______O__P__P_ -1 -18.20 149.70 20 25 1002 1.50 -18.18 149.66 TC 25 1002 -18.12 149.56 TC 25 45 45 7 113
1974 SP EA 21:00:00 TS -18.21 149.76 255 251 ______P__P__P_ -1 -18.24 149.81 20 25 1002 -18.21 149.78 TC 25 1002 -18.17 149.68 TC 25 6 110
1974 SP EA 23:00:00 TS -18.28 149.97 25 1003 bom 256 256 ______O__P__P_ -1 -18.30 150.00 20 25 1003 1.50 -18.28 150.00 TC 25 1002 -18.27 149.90 TC 25 45 45 6 110
1974 SP EA 1974-01-21 00:00:00 TS -18.31 150.06 262 258 ______P__O__O_ -1 -18.34 150.07 20 25 1003 -18.30 150.10 TC 25 1003 -18.30 150.00 TC 25 5 110
1974 SP EA 02:00:00 TS -18.36 150.20 25 1004 bom 258 258 ______O__P__P_ -1 -18.40 150.20 20 25 1004 1.50 -18.34 150.26 TC 25 1002 -18.34 150.16 TC 25 45 45 4 106
1974 SP EA 03:00:00 TS -18.37 150.27 264 264 ______P__P__P_ -1 -18.40 150.27 20 25 1003 -18.35 150.32 TC 25 1002 -18.36 150.22 TC 25 4 99
1974 SP EA 05:00:00 TS -18.39 150.39 25 1002 bom 270 270 ______O__P__P_ -1 -18.40 150.40 20 25 1002 1.50 -18.38 150.44 TC 25 1002 -18.38 150.34 TC 25 45 45 4 102
1974 SP EA 06:00:00 TS -18.41 150.46 277 268 ______P__O__O_ -1 -18.43 150.47 20 25 1002 -18.40 150.50 TC 25 1002 -18.40 150.40 TC 25 4 119
1974 SP EA 08:00:00 TS -18.48 150.57 25 1003 bom 276 276 ______O__P__P_ -1 -18.50 150.60 20 25 1003 1.50 -18.47 150.60 TC 23 1002 -18.47 150.51 TC 23 45 45 4 124
1974 SP EA 09:00:00 TS -18.52 150.62 276 275 ______P__P__P_ -1 -18.54 150.66 20 25 1003 -18.51 150.65 TC 22 1003 -18.51 150.56 TC 22 4 119
1974 SP EA 11:00:00 TS -18.58 150.77 25 1004 bom 283 283 ______O__P__P_ -1 -18.60 150.80 20 25 1004 1.50 -18.58 150.80 TC 20 1003 -18.58 150.70 TC 20 45 45 5 110
1974 SP EA 12:00:00 TS -18.60 150.87 290 290 ______P__O__O_ -1 -18.61 150.91 20 25 1004 -18.60 150.90 TC 20 1004 -18.60 150.80 TC 20 7 94
1974 SP EA 14:00:00 TS -18.61 151.15 25 1004 bom 307 307 ______O__P__P_ -1 -18.60 151.20 20 25 1004 1.50 -18.62 151.19 TC 21 1003 -18.62 151.06 TC 21 45 45 8 91
1974 SP EA 15:00:00 TS -18.61 151.31 323 323 ______P__P__P_ -1 -18.60 151.35 20 25 1003 -18.62 151.36 TC 22 1003 -18.62 151.21 TC 22 10 89
1974 SP EA 17:00:00 TS -18.60 151.65 25 1002 bom 358 358 ______O__P__P_ -1 -18.60 151.70 20 25 1002 1.50 -18.61 151.72 TC 24 1002 -18.61 151.53 TC 24 45 45 10 89
1974 SP EA 18:00:00 TS -18.60 151.83 367 367 ______P__O__O_ -1 -18.60 151.90 20 25 1002 -18.60 151.90 TC 25 1002 -18.60 151.70 TC 25 10 90
1974 SP EA 20:00:00 TS -18.60 152.20 25 1003 bom 404 404 ______O__P__P_ -1 -18.60 152.30 20 25 1003 1.50 -18.60 152.25 TC 23 1002 -18.60 152.06 TC 23 45 45 10 90
1974 SP EA 21:00:00 TS -18.60 152.37 422 422 ______P__P__P_ -1 -18.60 152.46 20 25 1003 -18.60 152.41 TC 22 1003 -18.60 152.24 TC 22 9 90
1974 SP EA 23:00:00 TS -18.60 152.65 25 1004 bom 450 450 ______O__P__P_ -1 -18.60 152.70 20 25 1004 1.50 -18.60 152.69 TC 20 1003 -18.60 152.57 TC 20 45 45 7 90
1974 SP EA 1974-01-22 00:00:00 TS -18.60 152.76 460 460 ______P__O__O_ -1 -18.60 152.79 20 25 1004 -18.60 152.80 TC 20 1004 -18.60 152.70 TC 20 5 88
1974 SP EA 02:00:00 TS -18.59 152.89 25 1004 bom 469 469 ______O__P__P_ -1 -18.60 152.90 20 25 1004 1.50 -18.58 152.92 TC 21 1003 -18.59 152.86 TC 21 45 45 3 85
1974 SP EA 03:00:00 TS -18.59 152.93 469 469 ______P__P__P_ -1 -18.59 152.94 20 25 1003 -18.58 152.95 TC 22 1003 -18.58 152.91 TC 22 2 90
1974 SP EA 05:00:00 TS -18.59 152.99 25 1003 bom 479 479 ______O__P__P_ -1 -18.60 153.00 20 25 1003 1.50 -18.58 152.99 TC 24 1003 -18.59 152.97 TC 24 45 45 2 110
1974 SP EA 06:00:00 TS -18.61 153.01 479 479 ______P__O__O_ -1 -18.63 153.03 20 25 1003 -18.60 153.00 TC 25 1003 -18.60 153.00 TC 25 2 132
1974 SP EA 08:00:00 TS -18.67 153.08 25 1004 bom 483 483 ______O__P__P_ -1 -18.70 153.10 20 25 1004 1.50 -18.67 153.06 TC 21 1004 -18.64 153.07 TC 23 45 45 3 138
1974 SP EA 09:00:00 TS -18.71 153.11 483 473 ______P__P__P_ -1 -18.73 153.13 20 25 1004 -18.72 153.09 TC 20 1004 -18.67 153.10 TC 22 3 145
1974 SP EA 11:00:00 TS -18.80 153.17 25 1006 bom 479 479 ______O__P__P_ -1 -18.80 153.20 20 25 1006 1.50 -18.84 153.16 TC 16 1005 -18.75 153.16 TC 20 45 45 4 146
1974 SP EA 12:00:00 TS -18.85 153.21 469 466 ______P__O__O_ -1 -18.86 153.23 20 25 1005 -18.90 153.20 TC 15 1006 -18.80 153.20 TC 20 4 150
1974 SP EA 14:00:00 TS -18.97 153.29 25 1005 bom 466 466 ______O__P__P_ -1 -19.00 153.30 20 25 1005 1.50 -19.01 153.30 TC 16 1005 -18.90 153.27 TC 20 45 45 4 147
1974 SP EA 15:00:00 TS -19.03 153.34 466 461 ______P__P__P_ -1 -19.06 153.35 20 25 1004 -19.07 153.36 TC 17 1005 -18.96 153.31 TC 20 5 139
1974 SP EA 17:00:00 TS -19.17 153.47 25 1004 bom 461 461 ______O__P__P_ -1 -19.20 153.50 20 25 1004 2.00 -19.21 153.51 TC 19 1004 -19.11 153.42 TC 20 45 45 6 136
1974 SP EA 18:00:00 TS -19.26 153.57 459 456 ______P__O__O_ -1 -19.29 153.62 20 25 1004 -19.30 153.60 TC 20 1004 -19.20 153.50 TC 20 9 130
1974 SP EA 20:00:00 TS -19.47 153.84 25 1005 bom 456 456 ______O__P__P_ -1 -19.50 153.90 20 25 1005 2.00 -19.50 153.87 TC 20 1004 -19.40 153.76 TC 20 45 45 10 130
1974 SP EA 21:00:00 TS -19.59 153.99 464 456 ______P__P__P_ -1 -19.63 154.04 20 25 1005 -19.62 154.02 TC 20 1004 -19.52 153.91 TC 20 11 134
1974 SP EA 23:00:00 TS -19.85 154.26 25 1005 bom 472 464 ______O__P__P_ -1 -19.90 154.30 20 25 1005 2.00 -19.87 154.30 TC 20 1004 -19.77 154.19 TC 20 45 45 15 126
1974 SP EA 1974-01-23 00:00:00 TS -20.03 154.64 482 481 O_____P_OOO_O_ jtwc_sh SH191974 -20.60 155.60 -1 -20.03 154.39 20 25 1005 -19.00 155.00 30 997 -20.00 154.40 TC 20 1005 -20.60 155.60 2 -19.90 154.30 TC 20 14 135
1974 SP EA 02:00:00 TS -20.33 154.79 25 1005 bom 481 470 P_____O_PPP_P_ SH191974 -20.84 155.32 -1 -20.30 154.50 20 25 1005 2.00 -19.42 154.96 31 995 -20.25 154.52 TC 21 1004 -20.83 155.33 2 -20.16 154.44 TC 21 45 45 10 159
1974 SP EA 03:00:00 TS -20.50 154.82 470 454 P_____P_PPP_P_ SH191974 -20.95 155.19 -1 -20.43 154.52 20 25 1004 -19.63 154.94 32 995 -20.38 154.54 TC 22 1004 -20.95 155.20 2 -20.29 154.48 TC 22 9 185
1974 SP EA 05:00:00 TS -20.79 154.75 25 1003 bom 445 440 P_____O_PPP_P_ SH191974 -21.19 154.92 -1 -20.70 154.50 20 25 1003 2.00 -20.05 154.88 34 994 -20.66 154.53 TC 24 1003 -21.18 154.95 2 -20.56 154.51 TC 24 45 45 9 197
1974 SP EA 06:00:00 TS -20.93 154.68 440 408 O_____P_POP_O_ jtwc_sh SH191974 -21.30 154.80 -1 -20.83 154.48 20 26 1002 -20.26 154.85 35 993 -20.80 154.50 TC 25 1003 -21.30 154.82 2 -20.70 154.50 TC 25 9 206
1974 SP EA 08:00:00 TS -21.20 154.53 30 1002 bom 408 404 P_____O_PPP_P_ SH191974 -21.53 154.57 -1 -21.10 154.40 20 30 1002 2.50 -20.68 154.76 36 992 -21.08 154.40 TC 26 1001 -21.53 154.59 2 -20.95 154.45 TC 26 45 45 9 207
1974 SP EA 09:00:00 TS -21.33 154.45 404 371 P_____P_PPP_P_ SH191974 -21.64 154.46 -1 -21.22 154.34 20 30 1001 -20.89 154.71 37 991 -21.23 154.33 TC 27 1001 -21.65 154.48 2 -21.08 154.40 TC 27 10 208
1974 SP EA 11:00:00 TS -21.62 154.29 30 1000 bom 371 358 P_____O_PPP_P_ SH191974 -21.88 154.28 -1 -21.50 154.20 20 30 1000 2.50 -21.30 154.58 39 990 -21.54 154.17 TC 29 1000 -21.88 154.29 2 -21.35 154.27 TC 29 45 45 10 207
1974 SP EA 12:00:00 TS -21.77 154.22 347 312 O_____P_OOO_O_ jtwc_sh SH191974 -22.00 154.20 -1 -21.69 154.13 20 30 1000 -21.50 154.50 40 990 -21.70 154.10 TC 30 1000 -22.00 154.20 2 -21.50 154.20 TC 30 10 203
1974 SP EA 14:00:00 TS -22.09 154.08 30 1000 bom 312 299 P_____O_PPP_P_ SH191974 -22.26 154.08 -1 -22.10 154.00 20 30 1000 2.50 -21.90 154.31 40 990 -22.04 153.99 TC 30 999 -22.24 154.05 2 -21.84 154.06 TC 30 45 45 10 201
1974 SP EA 15:00:00 TS -22.25 154.02 288 264 P_____P_PPP_P_ SH191974 -22.39 154.03 -1 -22.27 153.93 20 30 999 -22.10 154.21 40 990 -22.22 153.93 TC 30 999 -22.36 153.99 2 -22.02 153.99 TC 30 10 200
1974 SP EA 17:00:00 TS -22.58 153.89 30 999 bom 253 240 P_____O_PPP_P_ SH191974 -22.66 153.94 -1 -22.60 153.80 20 30 999 2.50 -22.49 153.98 40 990 -22.60 153.84 TC 30 999 -22.61 153.88 2 -22.40 153.86 TC 30 45 45 10 199
1974 SP EA 18:00:00 TS -22.74 153.84 240 205 O_____P_POP_O_ jtwc_sh SH191974 -22.80 153.90 -1 -22.76 153.76 20 30 999 -22.69 153.86 40 990 -22.80 153.80 TC 30 999 -22.74 153.84 2 -22.60 153.80 TC 30 10 197
1974 SP EA 20:00:00 TS -23.07 153.73 30 999 bom 194 183 P_____O_PPP_P_ SH191974 -23.05 153.80 -1 -23.10 153.70 20 30 999 2.50 -23.07 153.62 40 990 -23.22 153.73 TC 30 999 -23.01 153.76 2 -22.98 153.72 TC 30 45 45 10 196
1974 SP EA 21:00:00 TS -23.24 153.68 183 137 P_____P_PPP_P_ SH191974 -23.18 153.75 -1 -23.31 153.67 20 30 999 -23.26 153.51 40 990 -23.44 153.70 TC 30 999 -23.15 153.72 2 -23.18 153.68 TC 30 11 195
1974 SP EA 23:00:00 TS -23.60 153.59 30 1000 bom 137 113 P_____O_PPP_P_ SH191974 -23.45 153.65 -1 -23.80 153.60 20 30 1000 2.50 -23.62 153.30 40 990 -23.88 153.64 TC 30 999 -23.44 153.64 2 -23.59 153.63 TC 30 45 45 11 193
1974 SP EA 1974-01-24 00:00:00 TS -23.80 153.54 113 70 O_____P_OOO_O_ jtwc_sh SH191974 -23.60 153.60 -1 -24.07 153.57 20 31 1000 -23.80 153.20 40 990 -24.10 153.60 TC 30 1000 -23.60 153.60 2 -23.80 153.60 TC 30 13 192
1974 SP EA 02:00:00 TS -24.23 153.45 35 1000 bom 70 45 P_____O_PPP_P_ SH191974 -23.94 153.50 -1 -24.60 153.50 30 35 1000 2.50 -24.17 153.05 40 990 -24.54 153.52 TC 31 998 -24.10 153.53 2 -24.29 153.55 TC 31 49 49 13 191
1974 SP EA 03:00:00 TS -24.44 153.41 45 0 P_____P_PPP_P_ SH191974 -24.13 153.45 -1 -24.83 153.48 30 38 999 -24.35 152.98 40 990 -24.75 153.48 TC 32 998 -24.36 153.49 2 -24.54 153.53 TC 32 13 192
1974 SP EA 05:00:00 TS -24.85 153.31 45 997 bom 0 0 P_____O_PPP_P_ SH191974 -24.51 153.35 -1 -25.20 153.40 30 45 997 2.50 4 -24.70 152.86 40 990 -25.14 153.37 TC 34 997 -24.88 153.41 2 -25.01 153.46 TC 34 64 64 12 193
1974 SP EA 06:00:00 TS -25.03 153.26 0 0 O_____P_POP_O_ jtwc_sh SH191974 -24.70 153.30 -1 -25.32 153.32 30 46 997 -24.87 152.81 40 990 -25.30 153.30 TC 35 997 -25.13 153.37 2 -25.20 153.40 TC 35 11 198
1974 SP EA 08:00:00 TS -25.37 153.13 50 997 bom 0 0 P_____O_PPP_P_ SH191974 -25.18 153.22 -1 -25.50 153.10 30 50 997 -25.20 152.72 40 990 -25.55 153.12 TC 35 997 -25.53 153.28 2 -25.47 153.23 TC 33 69 69 11 200
1974 SP EA 09:00:00 TS -25.52 153.06 0 0 P_____P_PPP_P_ SH191974 -25.40 153.17 -1 -25.60 153.00 30 50 997 -25.36 152.69 40 990 -25.65 153.02 TC 35 997 -25.68 153.22 2 -25.57 153.13 TC 32 9 207
1974 SP EA 11:00:00 TS -25.76 152.91 50 998 bom 0 0 P_____O_PPP_P_ SH191974 -25.73 153.07 -1 -25.80 152.80 30 50 998 -25.66 152.62 40 990 -25.82 152.81 TC 35 997 -25.82 153.08 2 -25.73 152.91 TC 30 69 69 7 214
1974 SP EA 12:00:00 TS -25.83 152.83 0 0 O_____P_OOO_O_ jtwc_sh SH191974 -25.80 153.00 -1 -25.91 152.70 30 50 998 -25.80 152.60 40 990 -25.90 152.70 TC 35 998 -25.80 153.00 2 -25.80 152.80 TC 30 5 235
1974 SP EA 14:00:00 TS -25.90 152.67 50 998 bom 0 0 P_____O_PPP_P_ SH191974 -25.78 152.84 -1 -26.10 152.50 30 50 998 -26.07 152.56 40 990 -26.07 152.51 TC 33 998 -25.56 152.81 2 -25.97 152.61 TC 28 69 69 5 254
1974 SP EA 15:00:00 TS -25.89 152.58 0 0 P_____P_PPP_P_ SH191974 -25.67 152.75 -1 -26.17 152.40 30 50 998 -26.20 152.55 40 990 -26.16 152.41 TC 32 999 -25.34 152.70 2 -26.05 152.51 TC 27 5 296
1974 SP EA 17:00:00 TS -25.78 152.39 50 1000 bom 0 0 P_____O_PPP_P_ SH191974 -25.23 152.53 -1 -26.30 152.20 30 50 1000 -26.44 152.53 40 990 -26.32 152.21 TC 30 999 -24.76 152.46 2 -26.21 152.31 TC 25 69 69 7 308
1974 SP EA 18:00:00 TS -25.69 152.29 0 0 O_____P_POP_O_ jtwc_sh SH191974 -24.90 152.40 -1 -26.39 152.11 30 43 1000 -26.55 152.52 40 990 -26.40 152.10 TC 30 1000 -24.40 152.33 2 -26.30 152.20 TC 25 9 320
1974 SP EA 20:00:00 TS -25.44 152.07 30 1003 bom 0 0 P_____O_PPP_P_ SH191974 -24.01 152.12 -1 -26.60 151.90 20 30 1003 -26.77 152.51 40 990 -26.58 151.86 TC 28 1001 -23.58 152.06 2 -26.51 151.95 TC 25 45 45 8 306
1974 SP EA 21:00:00 TS -25.45 151.93 0 0 P_____P_PPP_P_ SH191974 -23.48 151.97 -1 -26.71 151.74 20 30 1003 -26.88 152.50 40 990 -26.66 151.73 TC 27 1001 -23.13 151.92 2 -26.61 151.82 TC 25 8 261
1974 SP EA 23:00:00 TS -25.50 151.62 30 1003 bom 0 0 P_____O_PPP_P_ SH191974 -22.31 151.66 -1 -26.90 151.40 20 30 1003 -27.09 152.50 40 990 -26.83 151.45 TC 25 1002 -22.18 151.64 2 -26.81 151.54 TC 25 45 45 14 222
1974 SP EA 1974-01-25 00:00:00 TS -25.95 151.43 0 0 O_____P_OOO_O_ jtwc_sh SH191974 -21.70 151.50 -1 -26.94 151.26 20 26 1003 -27.20 152.50 40 990 -26.90 151.30 TC 25 1003 -21.70 151.50 2 -26.90 151.40 TC 25 32 199
1974 SP EA 02:00:00 TS -27.02 151.03 20 1003 bom 0 0 ______O__P__P_ SH191974 -1 -27.00 151.00 20 20 1003 -27.02 150.98 TC 26 1002 2 -27.03 151.10 TC 25 45 45 25 204
1974 SP EA 03:00:00 TS -27.07 150.87 0 0 ______P__P__P_ SH191974 -1 -27.06 150.85 20 20 1002 -27.07 150.82 TC 27 1002 2 -27.08 150.95 TC 25 9 250
1974 SP EA 05:00:00 TS -27.18 150.54 20 1001 bom 0 0 ______O__P__P_ SH191974 -1 -27.20 150.50 20 20 1001 -27.16 150.47 TC 29 1001 2 -27.16 150.65 TC 25 45 45 10 252
1974 SP EA 06:00:00 TS -27.22 150.35 0 0 ______P__O__O_ -1 -27.25 150.31 20 20 1001 -27.20 150.30 TC 30 1001 2 -27.20 150.50 TC 25 12 258
1974 SP EA 08:00:00 NR -27.30 149.90 20 1003 bom 0 ______O_______ -1 -27.30 149.90 20 20 1003 TC 2 TC 45 45 12 259